Time;durP1;ratioP1;P1;durP2;ratioP2;P2;SDS_P1;SDS_P2;PMS_P1;PMS_P2;Temp;Humidity;BMP_temperature;BMP_pressure;BME280_temperature;BME280_humidity;BME280_pressure;Samples;Min_cycle;Max_cycle;Signal;HPM_P1;HPM_P2
2022/06/08 00:01:20;;;;;;;26.27;22.70;;;18.40;99.90;;;;;;5042546;28;20386;-69
2022/06/08 00:03:51;;;;;;;31.10;25.67;;;18.30;99.90;;;;;;5044074;28;20033;-69
2022/06/08 00:06:18;;;;;;;34.40;26.77;;;18.20;99.90;;;;;;5043264;28;20021;-68
2022/06/08 00:08:45;;;;;;;33.45;26.83;;;18.30;99.90;;;;;;5041732;28;20048;-69
2022/06/08 00:11:11;;;;;;;32.63;27.05;;;18.30;99.90;;;;;;5042021;28;20045;-69
2022/06/08 00:13:37;;;;;;;25.23;21.30;;;18.30;99.90;;;;;;5041961;28;20477;-68
2022/06/08 00:16:04;;;;;;;26.33;22.27;;;18.40;99.90;;;;;;5039283;28;20388;-69
2022/06/08 00:18:30;;;;;;;27.25;23.75;;;18.30;99.90;;;;;;5042015;28;20033;-69
2022/06/08 00:20:57;;;;;;;27.10;22.75;;;18.30;99.90;;;;;;5041282;28;20205;-68
2022/06/08 00:23:22;;;;;;;27.88;22.85;;;18.30;99.90;;;;;;5048311;28;20466;-68
2022/06/08 00:25:48;;;;;;;23.73;20.75;;;18.30;99.90;;;;;;5042364;28;20013;-68
2022/06/08 00:28:15;;;;;;;33.25;25.98;;;18.30;99.90;;;;;;5046818;28;20036;-68
2022/06/08 00:30:41;;;;;;;30.38;25.05;;;18.20;99.90;;;;;;5043671;28;20027;-68
2022/06/08 00:33:07;;;;;;;29.90;24.15;;;18.20;99.90;;;;;;5041120;28;20053;-68
2022/06/08 00:35:33;;;;;;;30.83;25.73;;;18.20;99.90;;;;;;5048110;28;20460;-68
2022/06/08 00:37:59;;;;;;;31.65;24.90;;;18.20;99.90;;;;;;5042485;28;20060;-69
2022/06/08 00:40:41;;;;;;;29.08;23.02;;;18.20;99.90;;;;;;5042576;28;20100;-68
2022/06/08 00:43:07;;;;;;;26.77;22.70;;;18.20;99.90;;;;;;5040198;28;20742;-68
2022/06/08 00:45:33;;;;;;;27.45;22.00;;;18.20;99.90;;;;;;5041687;28;20025;-68
2022/06/08 00:48:05;;;;;;;23.05;19.55;;;18.20;99.90;;;;;;5042408;28;20040;-68
2022/06/08 00:50:35;;;;;;;26.88;20.73;;;18.20;99.90;;;;;;5042231;28;20466;-68
2022/06/08 00:53:03;;;;;;;25.42;20.30;;;18.10;99.90;;;;;;5040547;28;20017;-68
2022/06/08 00:55:32;;;;;;;29.70;21.65;;;18.10;99.90;;;;;;5042154;28;20068;-68
2022/06/08 00:58:23;;;;;;;24.27;19.40;;;18.00;99.90;;;;;;5038828;28;20021;-68
2022/06/08 01:00:50;;;;;;;22.80;17.90;;;18.10;99.90;;;;;;5051048;28;20021;-69
2022/06/08 01:03:16;;;;;;;22.42;18.38;;;18.00;99.90;;;;;;5052042;28;20028;-68
2022/06/08 01:05:54;;;;;;;23.35;18.10;;;18.00;99.90;;;;;;5060610;28;20036;-68
2022/06/08 01:08:39;;;;;;;25.13;18.77;;;18.00;99.90;;;;;;5032310;28;20045;-68
2022/06/08 01:11:11;;;;;;;22.55;19.70;;;18.00;99.90;;;;;;5036643;28;20021;-68
2022/06/08 01:13:38;;;;;;;23.40;19.45;;;18.00;99.90;;;;;;5050682;28;20025;-68
2022/06/08 01:16:08;;;;;;;20.52;18.20;;;18.00;99.90;;;;;;5032488;28;20033;-68
2022/06/08 01:18:34;;;;;;;22.25;18.15;;;18.00;99.90;;;;;;5051409;28;20100;-68
2022/06/08 01:21:18;;;;;;;23.00;17.67;;;18.00;99.90;;;;;;5050844;28;20056;-68
2022/06/08 01:24:10;;;;;;;23.17;18.77;;;17.90;99.90;;;;;;5050507;28;20033;-68
2022/06/08 01:27:02;;;;;;;22.83;17.58;;;17.90;99.90;;;;;;5051142;28;20233;-68
2022/06/08 01:29:31;;;;;;;22.63;18.10;;;17.90;99.90;;;;;;5051710;28;20083;-68
2022/06/08 01:32:34;;;;;;;20.50;16.00;;;17.90;99.90;;;;;;5051843;28;20033;-68
2022/06/08 01:35:15;;;;;;;19.70;15.52;;;17.80;99.90;;;;;;5043007;28;20075;-68
2022/06/08 01:37:56;;;;;;;19.60;15.38;;;17.80;99.90;;;;;;5051708;28;20104;-68
2022/06/08 01:40:57;;;;;;;20.05;15.43;;;17.80;99.90;;;;;;5048983;28;20119;-68
2022/06/08 01:43:49;;;;;;;15.57;13.88;;;17.80;99.90;;;;;;5050428;28;20143;-68
2022/06/08 01:46:24;;;;;;;17.38;14.88;;;17.80;99.90;;;;;;5054119;28;20045;-68
2022/06/08 01:48:56;;;;;;;16.48;14.20;;;17.70;99.90;;;;;;5052501;28;20082;-68
2022/06/08 01:51:27;;;;;;;15.98;13.48;;;17.80;99.90;;;;;;5055216;28;20021;-68
2022/06/08 01:54:11;;;;;;;15.45;12.82;;;17.70;99.90;;;;;;5055094;28;20469;-68
2022/06/08 01:56:51;;;;;;;16.85;13.50;;;17.70;99.90;;;;;;5055072;28;20071;-68
2022/06/08 01:59:27;;;;;;;15.98;12.50;;;17.70;99.90;;;;;;5054948;28;20036;-68
2022/06/08 02:02:02;;;;;;;16.08;13.00;;;17.70;99.90;;;;;;5054104;28;20071;-68
2022/06/08 02:04:35;;;;;;;15.95;12.63;;;17.60;99.90;;;;;;5070886;28;20025;-68
2022/06/08 02:07:27;;;;;;;15.20;11.95;;;17.70;99.90;;;;;;5060083;28;20485;-68
2022/06/08 02:10:28;;;;;;;15.93;12.90;;;17.70;99.90;;;;;;5054950;28;20036;-68
2022/06/08 02:12:59;;;;;;;14.13;12.23;;;17.70;99.90;;;;;;5054712;28;20044;-68
2022/06/08 02:15:34;;;;;;;14.50;11.45;;;17.70;99.90;;;;;;5042823;28;20111;-68
2022/06/08 02:18:06;;;;;;;16.88;12.52;;;17.70;99.90;;;;;;5035097;28;20021;-68
2022/06/08 02:20:52;;;;;;;;;;;17.70;99.90;;;;;;5034065;28;20474;-68
2022/06/08 02:23:35;;;;;;;11.63;10.38;;;17.60;99.90;;;;;;5034967;28;19928;-68
2022/06/08 02:26:26;;;;;;;13.60;11.38;;;17.60;99.90;;;;;;5034922;28;20033;-68
2022/06/08 02:29:17;;;;;;;14.68;11.00;;;17.60;99.90;;;;;;5037144;28;20049;-68
2022/06/08 02:31:48;;;;;;;13.52;10.43;;;17.50;99.90;;;;;;5033002;28;20033;-68
2022/06/08 02:34:39;;;;;;;14.02;10.27;;;17.50;99.90;;;;;;5034299;28;20030;-68
2022/06/08 02:37:09;;;;;;;14.40;10.60;;;17.40;99.90;;;;;;5033885;28;20029;-68
2022/06/08 02:39:47;;;;;;;15.52;10.60;;;17.40;99.90;;;;;;5034664;28;20028;-69
2022/06/08 02:42:21;;;;;;;11.00;9.55;;;17.50;99.90;;;;;;5036402;28;20086;-68
2022/06/08 02:44:51;;;;;;;11.02;9.57;;;17.40;99.90;;;;;;5033290;28;20104;-68
2022/06/08 02:47:29;;;;;;;12.13;9.82;;;17.50;99.90;;;;;;5049710;28;20017;-68
2022/06/08 02:49:58;;;;;;;10.70;8.50;;;17.40;99.90;;;;;;5053817;28;20413;-68
2022/06/08 02:52:26;;;;;;;12.23;10.32;;;17.40;99.90;;;;;;5052903;28;20519;-68
2022/06/08 02:54:53;;;;;;;10.65;9.48;;;17.40;99.90;;;;;;5054587;28;20029;-68
2022/06/08 02:57:27;;;;;;;10.82;9.30;;;17.40;99.90;;;;;;5053046;28;20045;-68
2022/06/08 03:00:13;;;;;;;11.60;9.18;;;17.40;99.90;;;;;;5032912;28;20022;-68
2022/06/08 03:02:58;;;;;;;13.55;9.68;;;17.40;99.90;;;;;;5042960;28;20030;-68
2022/06/08 03:05:28;;;;;;;12.52;9.93;;;17.40;99.90;;;;;;5033196;28;20025;-68
2022/06/08 03:08:01;;;;;;;9.98;8.48;;;17.30;99.90;;;;;;5032463;28;20025;-68
2022/06/08 03:10:33;;;;;;;10.63;9.02;;;17.30;99.90;;;;;;5033962;28;20500;-68
2022/06/08 03:13:15;;;;;;;11.45;10.05;;;17.30;99.90;;;;;;5033697;28;20026;-68
2022/06/08 03:15:48;;;;;;;13.43;9.80;;;17.30;99.90;;;;;;5033369;28;20037;-68
2022/06/08 03:18:13;;;;;;;11.80;8.82;;;17.40;99.90;;;;;;5034119;28;20025;-68
2022/06/08 03:20:39;;;;;;;10.52;8.25;;;17.40;99.90;;;;;;5033215;28;20386;-68
2022/06/08 03:23:05;;;;;;;10.20;8.00;;;17.40;99.90;;;;;;5071478;28;20093;-68
2022/06/08 03:25:31;;;;;;;9.13;7.57;;;17.40;99.90;;;;;;5073288;28;20058;-68
2022/06/08 03:27:57;;;;;;;11.77;9.60;;;17.30;99.90;;;;;;5073153;28;20424;-68
2022/06/08 03:30:23;;;;;;;10.43;8.05;;;17.30;99.90;;;;;;5073291;28;20021;-68
2022/06/08 03:32:49;;;;;;;8.30;7.50;;;17.40;99.90;;;;;;5054086;28;20377;-68
2022/06/08 03:35:15;;;;;;;8.52;7.75;;;17.30;99.90;;;;;;5033889;28;20481;-68
2022/06/08 03:37:41;;;;;;;9.40;7.85;;;17.30;99.90;;;;;;5037491;28;20442;-68
2022/06/08 03:40:07;;;;;;;8.23;7.43;;;17.30;99.90;;;;;;5053965;28;20046;-68
2022/06/08 03:42:33;;;;;;;11.02;7.40;;;17.30;99.90;;;;;;5053297;28;20067;-68
2022/06/08 03:45:00;;;;;;;10.10;7.72;;;17.30;99.90;;;;;;5053152;28;20060;-68
2022/06/08 03:47:29;;;;;;;9.68;8.75;;;17.30;99.90;;;;;;5052818;28;20036;-68
2022/06/08 03:50:00;;;;;;;10.00;7.68;;;17.30;99.90;;;;;;5050061;28;20040;-68
2022/06/08 03:52:31;;;;;;;10.13;8.13;;;17.30;99.90;;;;;;5051624;28;20108;-68
2022/06/08 03:55:00;;;;;;;11.90;7.97;;;17.30;99.90;;;;;;5050191;28;20111;-69
2022/06/08 03:57:29;;;;;;;9.10;7.80;;;17.30;99.90;;;;;;5051643;28;20017;-69
2022/06/08 03:59:56;;;;;;;7.60;6.47;;;17.30;99.90;;;;;;5033038;28;20018;-68
2022/06/08 04:02:23;;;;;;;8.57;6.60;;;17.30;99.90;;;;;;5032540;28;20432;-69
2022/06/08 04:04:49;;;;;;;11.50;6.72;;;17.20;99.90;;;;;;5052238;28;20061;-69
2022/06/08 04:07:15;;;;;;;14.25;7.85;;;17.00;99.90;;;;;;5052944;28;20064;-68
2022/06/08 04:09:42;;;;;;;10.98;8.27;;;17.00;99.90;;;;;;5052986;28;20520;-68
2022/06/08 04:12:09;;;;;;;10.60;7.82;;;17.00;99.90;;;;;;5047755;28;20412;-68
2022/06/08 04:14:34;;;;;;;10.05;7.18;;;17.10;99.90;;;;;;5047206;28;20079;-68
2022/06/08 04:17:01;;;;;;;9.27;7.45;;;17.00;99.90;;;;;;5061204;28;20025;-68
2022/06/08 04:19:28;;;;;;;7.82;6.68;;;17.00;99.90;;;;;;5033553;28;20045;-68
2022/06/08 04:21:54;;;;;;;8.30;6.90;;;17.10;99.90;;;;;;5031930;28;20031;-68
2022/06/08 04:24:22;;;;;;;8.00;7.20;;;17.20;99.90;;;;;;5033020;28;20382;-68
2022/06/08 04:26:49;;;;;;;8.00;7.20;;;17.30;99.90;;;;;;5040208;28;20112;-68
2022/06/08 04:29:15;;;;;;;10.48;7.00;;;17.20;99.90;;;;;;5032367;28;20030;-68
2022/06/08 04:31:41;;;;;;;9.75;8.15;;;17.30;99.90;;;;;;5033169;28;20104;-68
2022/06/08 04:34:09;;;;;;;10.40;7.78;;;17.20;99.90;;;;;;5044887;28;20029;-68
2022/06/08 04:36:35;;;;;;;9.80;7.88;;;17.10;99.90;;;;;;5052868;28;20104;-67
2022/06/08 04:39:03;;;;;;;8.27;6.78;;;17.00;99.90;;;;;;5051144;28;20132;-68
2022/06/08 04:41:29;;;;;;;11.00;7.50;;;17.10;99.90;;;;;;5046203;28;20021;-68
2022/06/08 04:43:55;;;;;;;10.38;8.15;;;17.10;99.90;;;;;;5048528;28;20052;-68
2022/06/08 04:46:21;;;;;;;7.88;6.75;;;17.10;99.90;;;;;;5052535;28;20037;-68
2022/06/08 04:48:47;;;;;;;8.65;6.60;;;17.10;99.90;;;;;;5051681;28;20036;-68
2022/06/08 04:51:14;;;;;;;7.38;6.35;;;17.20;99.90;;;;;;5052041;28;20025;-68
2022/06/08 04:53:42;;;;;;;9.98;6.65;;;17.30;99.90;;;;;;5051935;28;20605;-68
2022/06/08 04:56:08;;;;;;;6.95;5.63;;;17.00;99.90;;;;;;5051251;28;20067;-68
2022/06/08 04:58:35;;;;;;;9.75;6.70;;;17.00;99.90;;;;;;5051430;28;20021;-68
2022/06/08 05:01:02;;;;;;;8.20;5.93;;;17.00;99.90;;;;;;5059625;28;20036;-68
2022/06/08 05:03:30;;;;;;;6.70;6.00;;;17.00;99.90;;;;;;5050189;28;20022;-68
2022/06/08 05:05:57;;;;;;;8.40;6.30;;;17.00;99.90;;;;;;5031460;28;20026;-68
2022/06/08 05:08:23;;;;;;;7.85;5.05;;;17.20;99.90;;;;;;5052432;28;20128;-68
2022/06/08 05:10:50;;;;;;;9.43;6.10;;;17.20;99.90;;;;;;5051579;28;20021;-68
2022/06/08 05:13:17;;;;;;;5.88;5.15;;;17.20;99.90;;;;;;5051978;28;20108;-68
2022/06/08 05:15:44;;;;;;;6.97;4.65;;;17.10;99.90;;;;;;5051143;28;20471;-68
2022/06/08 05:18:12;;;;;;;7.20;4.75;;;17.10;99.90;;;;;;5045091;28;20103;-68
2022/06/08 05:20:40;;;;;;;5.50;4.28;;;17.20;99.90;;;;;;5035003;28;20425;-68
2022/06/08 05:23:08;;;;;;;5.78;4.13;;;17.20;99.90;;;;;;5034961;28;20094;-68
2022/06/08 05:25:37;;;;;;;10.38;4.88;;;17.20;99.90;;;;;;5054817;28;20074;-68
2022/06/08 05:28:04;;;;;;;3.92;3.50;;;17.20;99.90;;;;;;5076200;28;20040;-68
2022/06/08 05:30:32;;;;;;;4.47;3.20;;;17.20;99.90;;;;;;5073819;28;20373;-68
2022/06/08 05:32:58;;;;;;;3.78;3.05;;;17.30;99.90;;;;;;5071269;28;20032;-68
2022/06/08 05:35:24;;;;;;;3.47;3.17;;;17.20;99.90;;;;;;5035294;28;20022;-68
2022/06/08 05:37:50;;;;;;;3.33;2.83;;;17.30;99.90;;;;;;5035944;28;20030;-69
2022/06/08 05:40:16;;;;;;;4.18;2.70;;;17.30;99.90;;;;;;5035281;28;20436;-68
2022/06/08 05:42:42;;;;;;;5.57;2.80;;;17.20;99.90;;;;;;5035468;28;20041;-68
2022/06/08 05:45:21;;;;;;;5.22;3.03;;;17.30;99.90;;;;;;5035994;28;20101;-68
2022/06/08 05:47:47;;;;;;;4.10;3.30;;;17.40;99.90;;;;;;5036787;28;20037;-69
2022/06/08 05:50:13;;;;;;;5.60;2.70;;;17.40;99.90;;;;;;5054943;28;20099;-68
2022/06/08 05:52:39;;;;;;;6.07;3.30;;;17.40;99.90;;;;;;5054360;28;20021;-68
2022/06/08 05:55:06;;;;;;;5.05;2.80;;;17.50;99.90;;;;;;5050352;28;20159;-69
2022/06/08 05:57:32;;;;;;;3.90;2.70;;;17.50;99.90;;;;;;5042803;28;20025;-68
2022/06/08 05:59:58;;;;;;;4.35;2.90;;;17.70;99.90;;;;;;5045444;28;20032;-68
2022/06/08 06:02:24;;;;;;;4.88;3.30;;;17.70;99.90;;;;;;5056645;28;20469;-68
2022/06/08 06:04:50;;;;;;;5.93;2.83;;;17.70;99.90;;;;;;5042258;28;20505;-69
2022/06/08 06:07:17;;;;;;;3.50;3.20;;;17.80;99.90;;;;;;5049158;28;20048;-70
2022/06/08 06:09:43;;;;;;;3.42;2.83;;;17.80;99.90;;;;;;5051804;28;20123;-69
2022/06/08 06:12:09;;;;;;;6.38;2.83;;;17.80;99.90;;;;;;5035972;28;20030;-69
2022/06/08 06:14:36;;;;;;;4.85;3.30;;;17.90;99.90;;;;;;5050842;28;20083;-70
2022/06/08 06:17:02;;;;;;;3.75;2.60;;;17.80;99.90;;;;;;5052817;28;20120;-70
2022/06/08 06:19:27;;;;;;;5.15;3.08;;;17.80;99.90;;;;;;5055077;28;20432;-70
2022/06/08 06:21:53;;;;;;;7.47;3.15;;;17.90;99.90;;;;;;5054971;28;20025;-70
2022/06/08 06:24:20;;;;;;;5.93;3.05;;;18.00;99.90;;;;;;5055115;28;20087;-71
2022/06/08 06:26:46;;;;;;;4.28;3.08;;;17.90;99.90;;;;;;5044994;28;20359;-70
2022/06/08 06:29:11;;;;;;;3.00;2.80;;;18.00;99.90;;;;;;5033907;28;20482;-70
2022/06/08 06:31:45;;;;;;;4.20;2.70;;;18.10;99.90;;;;;;5034981;28;20044;-70
2022/06/08 06:34:13;;;;;;;5.47;2.50;;;18.20;99.90;;;;;;5044668;28;20484;-70
2022/06/08 06:36:39;;;;;;;4.70;2.60;;;18.30;99.90;;;;;;5064348;28;20024;-70
2022/06/08 06:39:05;;;;;;;4.25;3.25;;;18.30;99.90;;;;;;5074556;28;20032;-70
2022/06/08 06:41:31;;;;;;;9.57;3.22;;;18.30;99.90;;;;;;5073319;28;20100;-70
2022/06/08 06:43:56;;;;;;;5.35;2.78;;;18.30;99.90;;;;;;5074663;28;20038;-70
2022/06/08 06:46:22;;;;;;;5.82;2.63;;;18.30;99.90;;;;;;5062872;28;20021;-70
2022/06/08 06:48:48;;;;;;;4.32;2.47;;;18.40;99.90;;;;;;5035073;28;20133;-71
2022/06/08 06:51:14;;;;;;;5.72;2.47;;;18.50;99.90;;;;;;5048282;28;20021;-70
2022/06/08 06:53:40;;;;;;;4.10;2.60;;;18.60;99.90;;;;;;5044846;28;20025;-71
2022/06/08 06:56:06;;;;;;;3.80;2.58;;;18.60;99.90;;;;;;5043835;28;20359;-71
2022/06/08 06:58:32;;;;;;;7.22;2.78;;;18.70;99.90;;;;;;5043906;28;20458;-71
2022/06/08 07:00:58;;;;;;;6.20;2.88;;;18.80;99.90;;;;;;5044259;28;20112;-70
2022/06/08 07:03:23;;;;;;;8.48;3.03;;;18.70;99.90;;;;;;5047896;28;20492;-71
2022/06/08 07:05:49;;;;;;;3.72;2.78;;;18.70;99.90;;;;;;5053409;28;20075;-71
2022/06/08 07:08:15;;;;;;;4.00;2.63;;;18.70;99.90;;;;;;5041630;28;20029;-71
2022/06/08 07:10:43;;;;;;;7.85;2.90;;;18.80;99.90;;;;;;5042103;28;20156;-71
2022/06/08 07:13:09;;;;;;;5.80;2.88;;;18.80;99.90;;;;;;5035612;28;20505;-70
2022/06/08 07:15:35;;;;;;;8.85;3.03;;;18.80;99.90;;;;;;5039012;28;20021;-71
2022/06/08 07:18:01;;;;;;;4.38;2.63;;;18.90;99.90;;;;;;5043052;28;20041;-71
2022/06/08 07:20:27;;;;;;;7.28;2.50;;;19.00;99.90;;;;;;5044436;28;20021;-71
2022/06/08 07:22:52;;;;;;;6.32;3.05;;;19.10;99.90;;;;;;5043857;28;20105;-71
2022/06/08 07:25:19;;;;;;;8.25;2.78;;;19.10;99.90;;;;;;5051068;28;20100;-71
2022/06/08 07:27:47;;;;;;;5.90;2.60;;;19.00;99.90;;;;;;5053713;28;20112;-71
2022/06/08 07:30:14;;;;;;;4.95;2.63;;;19.10;99.90;;;;;;5053183;28;20017;-71
2022/06/08 07:32:40;;;;;;;7.18;2.75;;;19.00;99.90;;;;;;5053093;28;20098;-70
2022/06/08 07:35:07;;;;;;;6.07;2.97;;;19.00;99.90;;;;;;5047214;28;20490;-71
2022/06/08 07:37:33;;;;;;;7.10;2.50;;;19.10;99.90;;;;;;5047518;28;20428;-70
2022/06/08 07:39:59;;;;;;;7.82;2.88;;;19.20;99.90;;;;;;5051967;28;20549;-71
2022/06/08 07:42:24;;;;;;;8.73;2.80;;;19.20;99.90;;;;;;5050344;28;20029;-71
2022/06/08 07:44:50;;;;;;;8.93;3.13;;;19.20;99.90;;;;;;5052881;28;20220;-71
2022/06/08 07:47:16;;;;;;;5.18;2.67;;;19.30;99.90;;;;;;5042770;28;20032;-71
2022/06/08 07:49:49;;;;;;;4.13;2.30;;;19.40;99.90;;;;;;5047292;28;20045;-71
2022/06/08 07:52:18;;;;;;;4.45;2.60;;;19.50;99.90;;;;;;5053290;28;20029;-71
2022/06/08 07:54:45;;;;;;;5.13;2.85;;;19.50;99.90;;;;;;5050345;28;20025;-71
2022/06/08 07:57:21;;;;;;;7.78;2.63;;;19.60;99.90;;;;;;5053118;28;20021;-71
2022/06/08 07:59:48;;;;;;;7.78;2.67;;;19.60;99.90;;;;;;5053048;28;20025;-71
2022/06/08 08:02:14;;;;;;;5.57;2.15;;;19.50;99.90;;;;;;5053393;28;20025;-71
2022/06/08 08:04:40;;;;;;;8.27;2.38;;;19.50;99.90;;;;;;5049580;28;20048;-71
2022/06/08 08:07:06;;;;;;;5.60;2.50;;;19.50;99.90;;;;;;5043134;28;20017;-71
2022/06/08 08:09:34;;;;;;;6.10;2.88;;;19.70;99.90;;;;;;5040023;28;20500;-71
2022/06/08 08:12:00;;;;;;;8.55;2.40;;;19.60;99.90;;;;;;5036715;28;20044;-70
2022/06/08 08:14:26;;;;;;;5.20;2.42;;;19.70;99.90;;;;;;5033127;28;20392;-69
2022/06/08 08:16:52;;;;;;;9.68;3.10;;;19.80;99.90;;;;;;5015161;28;20116;-71
2022/06/08 08:19:20;;;;;;;9.80;2.65;;;19.80;99.90;;;;;;5045403;28;20653;-71
2022/06/08 08:21:47;;;;;;;7.07;2.40;;;19.90;99.90;;;;;;5037561;28;20021;-71
2022/06/08 08:24:13;;;;;;;9.27;2.45;;;20.00;99.90;;;;;;5040649;28;20025;-70
2022/06/08 08:26:39;;;;;;;7.85;2.70;;;20.10;99.90;;;;;;5042311;28;20049;-71
2022/06/08 08:29:06;;;;;;;21.52;4.15;;;20.20;99.90;;;;;;5044226;28;20034;-71
2022/06/08 08:31:32;;;;;;;6.75;2.72;;;20.20;99.90;;;;;;5041319;28;20569;-71
2022/06/08 08:33:59;;;;;;;5.63;2.63;;;20.30;99.90;;;;;;5044276;28;20112;-71
2022/06/08 08:36:25;;;;;;;12.15;3.15;;;20.20;99.90;;;;;;5045224;28;20024;-70
2022/06/08 08:38:50;;;;;;;5.65;2.45;;;20.10;99.90;;;;;;5040777;28;20029;-71
2022/06/08 08:44:36;;;;;;;7.40;2.78;;;20.10;99.90;;;;;;5041087;28;20520;-71
2022/06/08 08:47:08;;;;;;;9.32;3.13;;;20.10;99.90;;;;;;5044801;28;20384;-71
2022/06/08 08:49:35;;;;;;;;;;;20.20;99.90;;;;;;5048495;28;20032;-71
2022/06/08 08:52:11;;;;;;;8.32;2.35;;;20.20;99.90;;;;;;5046953;28;19955;-71
2022/06/08 08:54:45;;;;;;;9.45;2.90;;;20.40;99.90;;;;;;5069228;28;20048;-71
2022/06/08 08:57:11;;;;;;;6.72;2.58;;;20.50;99.90;;;;;;5061055;28;20021;-71
2022/06/08 08:59:41;;;;;;;7.53;2.80;;;20.50;99.90;;;;;;5055700;28;20075;-71
2022/06/08 09:05:18;;;;;;;5.03;3.03;;;20.60;99.90;;;;;;5059337;28;20052;-71
2022/06/08 09:07:44;;;;;;;8.30;2.97;;;20.60;99.90;;;;;;5068687;28;20531;-71
2022/06/08 09:10:22;;;;;;;10.18;3.10;;;20.60;99.90;;;;;;5065900;28;20013;-72
2022/06/08 09:12:48;;;;;;;11.00;3.30;;;20.50;99.90;;;;;;5052164;28;20027;-71
2022/06/08 09:15:17;;;;;;;6.20;2.25;;;20.40;99.90;;;;;;5071054;28;20054;-71
2022/06/08 09:17:56;;;;;;;6.28;2.75;;;20.40;99.90;;;;;;5054901;28;20025;-71
2022/06/08 09:20:32;;;;;;;10.57;2.85;;;20.40;99.90;;;;;;5045035;28;20049;-71
2022/06/08 09:23:20;;;;;;;9.50;2.78;;;20.30;99.90;;;;;;5053228;28;20029;-71
2022/06/08 09:25:59;;;;;;;8.95;2.65;;;20.30;99.90;;;;;;5051952;28;20032;-71
2022/06/08 09:28:30;;;;;;;8.93;2.60;;;20.30;99.90;;;;;;5063895;28;20040;-71
2022/06/08 09:30:56;;;;;;;6.40;2.67;;;20.40;99.90;;;;;;5071516;28;20040;-71
2022/06/08 09:33:37;;;;;;;7.18;2.80;;;20.30;99.90;;;;;;5052678;28;20027;-71
2022/06/08 09:36:07;;;;;;;11.70;3.35;;;20.10;99.90;;;;;;5048115;28;20036;-72
2022/06/08 09:38:40;;;;;;;10.18;2.67;;;20.00;99.90;;;;;;5068235;28;20495;-71
2022/06/08 09:41:05;;;;;;;;;;;20.00;99.90;;;;;;5058614;28;20025;-72
2022/06/08 09:43:34;;;;;;;7.82;3.22;;;20.10;99.90;;;;;;5052197;28;19920;-71
2022/06/08 09:46:05;;;;;;;7.28;3.20;;;19.90;99.90;;;;;;5060648;28;20067;-72
2022/06/08 09:52:00;;;;;;;11.02;3.20;;;19.70;99.90;;;;;;5056907;28;20035;-73
2022/06/08 09:54:31;;;;;;;10.23;3.85;;;19.60;99.90;;;;;;5059945;28;21544;-73
2022/06/08 09:57:01;;;;;;;10.68;4.10;;;19.60;99.90;;;;;;5052426;28;20508;-73
2022/06/08 09:59:49;;;;;;;11.73;3.80;;;19.60;99.90;;;;;;5042691;28;20063;-73
2022/06/08 10:02:47;;;;;;;9.48;3.55;;;19.50;99.90;;;;;;5052314;28;20026;-71
2022/06/08 10:05:24;;;;;;;9.43;3.90;;;19.40;99.90;;;;;;5042773;28;20041;-73
2022/06/08 10:08:14;;;;;;;9.85;4.15;;;19.40;99.90;;;;;;5050053;28;20496;-73
2022/06/08 10:11:34;;;;;;;10.85;4.25;;;19.30;99.90;;;;;;5067782;28;20122;-73
2022/06/08 10:14:13;;;;;;;15.75;4.68;;;19.10;99.90;;;;;;5056376;28;20032;-74
2022/06/08 10:16:56;;;;;;;9.40;3.67;;;18.90;99.90;;;;;;5056134;28;20048;-72
2022/06/08 10:20:06;;;;;;;12.48;4.30;;;18.80;99.90;;;;;;5069878;28;20033;-73
2022/06/08 10:22:39;;;;;;;9.55;4.03;;;18.70;99.90;;;;;;5058525;28;20045;-72
2022/06/08 10:25:21;;;;;;;7.35;3.15;;;18.80;99.90;;;;;;5051692;28;20416;-73
2022/06/08 10:27:51;;;;;;;5.93;2.63;;;18.70;99.90;;;;;;5057071;28;20032;-71
2022/06/08 10:30:39;;;;;;;8.75;2.85;;;18.80;99.90;;;;;;5053579;28;20020;-73
2022/06/08 10:33:19;;;;;;;9.88;2.85;;;18.90;99.90;;;;;;5050046;28;20050;-73
2022/06/08 10:35:52;;;;;;;9.00;3.33;;;18.90;99.90;;;;;;5064096;28;20525;-73
2022/06/08 10:38:26;;;;;;;6.68;2.97;;;18.90;99.90;;;;;;5051379;28;20588;-73
2022/06/08 10:40:58;;;;;;;10.00;3.50;;;18.90;99.90;;;;;;5064985;28;20127;-73
2022/06/08 10:43:27;;;;;;;9.23;2.83;;;18.80;99.90;;;;;;5044972;28;20034;-73
2022/06/08 10:46:05;;;;;;;11.02;3.95;;;18.70;99.90;;;;;;5051473;28;20478;-73
2022/06/08 10:48:43;;;;;;;6.65;2.40;;;18.60;99.90;;;;;;5052198;28;20148;-72
2022/06/08 10:51:14;;;;;;;7.60;2.45;;;18.50;99.90;;;;;;5047943;28;20013;-73
2022/06/08 10:56:29;;;;;;;7.88;2.33;;;18.40;99.90;;;;;;5051877;28;20507;-73
2022/06/08 10:59:17;;;;;;;8.88;3.13;;;18.30;99.90;;;;;;5047716;28;20103;-73
2022/06/08 11:02:26;;;;;;;9.05;3.00;;;18.20;99.90;;;;;;5057223;28;20143;-72
2022/06/08 11:05:18;;;;;;;11.52;3.38;;;18.20;99.90;;;;;;5049198;28;20038;-73
2022/06/08 11:07:59;;;;;;;10.63;3.27;;;18.30;99.90;;;;;;5056384;28;20041;-73
2022/06/08 11:13:20;;;;;;;8.57;2.95;;;18.00;99.90;;;;;;5052827;28;20063;-72
2022/06/08 11:15:52;;;;;;;7.32;3.13;;;18.20;99.90;;;;;;5053742;28;20033;-72
2022/06/08 11:18:21;;;;;;;5.93;2.53;;;18.30;99.90;;;;;;5062052;28;20032;-72
2022/06/08 11:21:23;;;;;;;6.32;2.92;;;18.20;99.90;;;;;;5046703;28;20284;-73
2022/06/08 11:23:51;;;;;;;8.33;3.70;;;18.30;99.90;;;;;;5047043;28;20389;-73
2022/06/08 11:26:19;;;;;;;9.07;3.10;;;18.30;99.90;;;;;;5057364;28;20035;-73
2022/06/08 11:28:48;;;;;;;7.32;3.60;;;18.40;99.90;;;;;;5054725;28;20493;-73
2022/06/08 11:31:26;;;;;;;6.63;3.28;;;18.20;99.90;;;;;;5054943;28;20024;-72
2022/06/08 11:34:18;;;;;;;10.90;3.83;;;18.20;99.90;;;;;;5055442;28;20040;-72
2022/06/08 11:37:12;;;;;;;9.02;3.80;;;18.30;99.90;;;;;;5052070;28;20024;-72
2022/06/08 11:39:40;;;;;;;8.07;3.67;;;18.20;99.90;;;;;;5046241;28;20067;-70
2022/06/08 11:42:18;;;;;;;8.15;3.33;;;18.10;99.90;;;;;;5049355;28;20029;-72
2022/06/08 11:44:55;;;;;;;10.50;3.83;;;17.80;99.90;;;;;;5059622;28;20111;-72
2022/06/08 11:47:52;;;;;;;8.10;3.53;;;17.80;99.90;;;;;;5057733;28;20436;-71
2022/06/08 11:50:54;;;;;;;8.88;3.45;;;17.70;99.90;;;;;;5054759;28;20037;-72
2022/06/08 11:53:25;;;;;;;9.70;3.28;;;17.70;99.90;;;;;;5051052;28;20036;-72
2022/06/08 11:56:09;;;;;;;8.13;3.58;;;17.70;99.90;;;;;;5050100;28;20031;-71
2022/06/08 11:58:36;;;;;;;5.88;3.38;;;17.70;99.90;;;;;;5041813;28;20108;-71
2022/06/08 12:01:08;;;;;;;7.35;3.75;;;17.80;99.90;;;;;;5059788;28;20056;-71
2022/06/08 12:03:46;;;;;;;7.10;3.28;;;17.60;99.90;;;;;;5045339;28;20086;-73
2022/06/08 12:06:19;;;;;;;7.80;3.90;;;17.60;99.90;;;;;;5038462;28;20029;-73
2022/06/08 12:09:05;;;;;;;;;;;17.70;99.90;;;;;;5042443;28;20402;-73
2022/06/08 12:11:33;;;;;;;7.93;3.75;;;17.80;99.90;;;;;;5045386;28;19905;-71
2022/06/08 12:14:01;;;;;;;8.93;3.75;;;17.90;99.90;;;;;;5044647;28;20087;-70
2022/06/08 12:16:36;;;;;;;7.95;4.13;;;17.90;99.90;;;;;;5043532;28;20021;-71
2022/06/08 12:19:10;;;;;;;7.78;3.60;;;17.90;99.90;;;;;;5040468;28;20021;-70
2022/06/08 12:21:38;;;;;;;8.50;4.03;;;18.00;99.90;;;;;;5043241;28;20025;-70
2022/06/08 12:24:11;;;;;;;10.45;4.03;;;17.80;99.90;;;;;;5043988;28;20032;-71
2022/06/08 12:26:55;;;;;;;14.50;4.30;;;17.80;99.90;;;;;;5042715;28;20103;-72
2022/06/08 12:29:37;;;;;;;8.65;3.85;;;17.80;99.90;;;;;;5036990;28;20052;-72
2022/06/08 12:32:05;;;;;;;9.27;4.37;;;18.00;99.90;;;;;;5043713;28;20021;-70
2022/06/08 12:34:42;;;;;;;8.80;3.88;;;18.10;99.90;;;;;;5040987;28;20026;-70
2022/06/08 12:37:26;;;;;;;6.85;3.47;;;18.00;99.90;;;;;;5042149;28;20021;-70
2022/06/08 12:39:53;;;;;;;9.10;4.20;;;18.00;99.90;;;;;;5042251;28;20028;-70
2022/06/08 12:42:27;;;;;;;4.88;3.50;;;17.90;99.90;;;;;;5045359;28;20028;-72
2022/06/08 12:44:55;;;;;;;9.43;4.03;;;17.90;99.90;;;;;;5062424;28;20079;-71
2022/06/08 12:47:24;;;;;;;5.90;4.10;;;17.90;99.90;;;;;;5047108;28;20027;-71
2022/06/08 12:49:55;;;;;;;6.93;4.75;;;18.20;99.90;;;;;;5042105;28;20402;-72
2022/06/08 12:52:25;;;;;;;10.00;4.05;;;18.10;99.90;;;;;;5041642;28;20017;-73
2022/06/08 12:54:51;;;;;;;6.47;3.85;;;18.00;99.90;;;;;;5043559;28;20021;-72
2022/06/08 12:57:21;;;;;;;6.95;3.95;;;18.10;99.90;;;;;;5044636;28;20023;-73
2022/06/08 12:59:50;;;;;;;6.45;3.90;;;18.00;99.90;;;;;;5041926;28;20038;-73
2022/06/08 13:02:20;;;;;;;7.50;4.13;;;17.90;99.90;;;;;;5043063;28;20036;-74
2022/06/08 13:04:46;;;;;;;7.40;4.00;;;17.90;99.90;;;;;;5048394;28;20103;-74
2022/06/08 13:07:18;;;;;;;7.22;4.22;;;17.90;99.90;;;;;;5040566;28;20248;-72
2022/06/08 13:09:44;;;;;;;6.35;3.75;;;17.90;99.90;;;;;;5068865;28;20165;-73
2022/06/08 13:12:16;;;;;;;8.27;4.05;;;17.80;99.90;;;;;;5059116;28;20481;-73
2022/06/08 13:14:42;;;;;;;5.22;3.72;;;17.70;99.90;;;;;;5061445;28;20062;-72
2022/06/08 13:17:09;;;;;;;4.97;3.45;;;17.70;99.90;;;;;;5067252;28;20043;-72
2022/06/08 13:19:35;;;;;;;4.30;3.33;;;17.80;99.90;;;;;;5066223;28;20104;-72
2022/06/08 13:22:01;;;;;;;4.75;3.70;;;17.80;99.90;;;;;;5059283;28;20272;-74